createdAt,value
2023-03-11T00:00:00.431Z,96846.41
2023-03-11T00:02:32.216Z,96857.72
2023-03-11T00:05:04.415Z,96877.28
2023-03-11T00:07:37.719Z,96876.31
2023-03-11T00:10:33.576Z,96869.28
2023-03-11T00:13:07.317Z,96864.88
2023-03-11T00:15:39.869Z,96896.19
2023-03-11T00:18:11.748Z,96900.44
2023-03-11T00:20:45.679Z,96931.34
2023-03-11T00:23:17.405Z,96955.31
2023-03-11T00:25:49.119Z,96972.44
2023-03-11T00:28:25.266Z,96982.59
2023-03-11T00:30:57.042Z,97003.47
2023-03-11T00:33:28.783Z,97018.88
2023-03-11T00:36:00.503Z,97031.13
2023-03-11T00:38:32.482Z,97028.34
2023-03-11T00:41:04.460Z,97042.69
2023-03-11T00:43:36.380Z,97040.31
2023-03-11T00:46:10.195Z,97052.38
2023-03-11T00:48:41.936Z,97048.94
2023-03-11T00:51:15.336Z,97048.69
2023-03-11T00:53:47.172Z,97056.22
2023-03-11T00:56:19.072Z,97067.22
2023-03-11T00:58:50.828Z,97062.56
2023-03-11T01:01:23.512Z,97085.63
2023-03-11T01:03:55.550Z,97084.91
2023-03-11T01:06:32.741Z,97085.44
2023-03-11T01:09:11.090Z,97092.63
2023-03-11T01:11:42.863Z,97099.75
2023-03-11T01:14:14.793Z,97100.94
2023-03-11T01:16:46.659Z,97105.78
2023-03-11T01:19:20.924Z,97107.22
2023-03-11T01:21:52.848Z,97119.09
2023-03-11T01:24:24.630Z,97116.94
2023-03-11T01:26:56.429Z,97115.13
2023-03-11T01:29:29.670Z,97127.66
2023-03-11T01:32:01.344Z,97130.78
2023-03-11T01:34:35.773Z,97128.56
2023-03-11T01:37:07.503Z,97133.59
2023-03-11T01:39:39.218Z,97130.19
2023-03-11T01:42:15.026Z,97134.03
2023-03-11T01:44:47.344Z,97145.31
2023-03-11T01:47:39.778Z,97144.31
2023-03-11T01:50:13.981Z,97139.53
2023-03-11T01:52:47.792Z,97148.66
2023-03-11T01:55:20.432Z,97149.91
2023-03-11T01:57:54.007Z,97154.31
2023-03-11T02:00:26.772Z,97156.91
2023-03-11T02:03:02.317Z,97165.19
2023-03-11T02:05:35.347Z,97165.00
2023-03-11T02:08:08.035Z,97166.38
2023-03-11T02:10:41.917Z,97170.34
2023-03-11T02:13:13.729Z,97179.50
2023-03-11T02:15:46.429Z,97167.81
2023-03-11T02:18:20.404Z,97181.59
2023-03-11T02:21:18.781Z,97183.44
2023-03-11T02:24:13.418Z,97197.53
2023-03-11T02:26:55.842Z,97194.38
2023-03-11T02:29:29.586Z,97203.81
2023-03-11T02:32:06.580Z,97195.69
2023-03-11T02:34:39.766Z,97204.72
2023-03-11T02:37:14.860Z,97204.88
2023-03-11T02:39:54.795Z,97213.41
2023-03-11T02:42:32.544Z,97220.81
2023-03-11T02:45:30.751Z,97219.16
2023-03-11T02:48:03.278Z,97228.81
2023-03-11T02:50:37.334Z,97216.63
2023-03-11T02:53:10.168Z,97250.09
2023-03-11T02:55:42.096Z,97237.50
2023-03-11T02:58:13.957Z,97235.78
2023-03-11T03:00:45.838Z,97242.31
2023-03-11T03:03:17.794Z,97235.97
2023-03-11T03:05:50.810Z,97245.13
2023-03-11T03:08:22.709Z,97250.97
2023-03-11T03:10:54.468Z,97259.28
2023-03-11T03:13:27.481Z,97247.53
2023-03-11T03:16:00.817Z,97265.34
2023-03-11T03:18:32.708Z,97257.69
2023-03-11T03:21:05.521Z,97256.88
2023-03-11T03:23:38.210Z,97264.91
2023-03-11T03:26:13.772Z,97271.72
2023-03-11T03:28:47.238Z,97273.50
2023-03-11T03:31:19.493Z,97292.94
2023-03-11T03:33:51.336Z,97275.84
2023-03-11T03:36:23.859Z,97293.25
2023-03-11T03:39:01.555Z,97292.59
2023-03-11T03:41:37.696Z,97294.75
2023-03-11T03:44:10.328Z,97295.72
2023-03-11T03:46:42.449Z,97296.38
2023-03-11T03:49:14.909Z,97318.69
2023-03-11T03:51:46.985Z,97309.25
2023-03-11T03:54:29.000Z,97303.53
2023-03-11T03:57:01.111Z,97340.06
2023-03-11T03:59:35.127Z,97327.53
2023-03-11T04:02:09.615Z,97333.75
2023-03-11T04:04:41.642Z,97352.00
2023-03-11T04:07:15.624Z,97344.63
2023-03-11T04:09:47.533Z,97358.84
2023-03-11T04:12:20.377Z,97364.38
2023-03-11T04:14:52.263Z,97367.22
2023-03-11T04:17:24.215Z,97367.22
2023-03-11T04:19:57.449Z,97374.00
2023-03-11T04:22:29.459Z,97380.41
2023-03-11T04:25:01.317Z,97404.53
2023-03-11T04:27:34.890Z,97380.78
2023-03-11T04:30:09.640Z,97388.75
2023-03-11T04:32:41.827Z,97407.66
2023-03-11T04:35:14.238Z,97405.38
2023-03-11T04:37:46.049Z,97403.28
2023-03-11T04:40:18.587Z,97397.56
2023-03-11T04:42:53.046Z,97404.78
2023-03-11T04:45:24.995Z,97420.28
2023-03-11T04:48:01.181Z,97428.91
2023-03-11T04:50:35.329Z,97433.78
2023-03-11T04:53:07.215Z,97429.88
2023-03-11T04:55:40.047Z,97436.56
2023-03-11T04:58:11.814Z,97446.03
2023-03-11T05:00:44.539Z,97458.41
2023-03-11T05:03:19.083Z,97461.19
2023-03-11T05:05:53.192Z,97453.69
2023-03-11T05:08:26.602Z,97469.34
2023-03-11T05:10:58.437Z,97487.94
2023-03-11T05:13:30.238Z,97485.94
2023-03-11T05:16:02.509Z,97490.69
2023-03-11T05:18:34.365Z,97501.28
2023-03-11T05:21:06.548Z,97503.88
2023-03-11T05:23:40.800Z,97509.41
2023-03-11T05:26:12.623Z,97534.50
2023-03-11T05:28:47.084Z,97541.19
2023-03-11T05:31:18.970Z,97540.38
2023-03-11T05:33:50.739Z,97545.72
2023-03-11T05:36:22.562Z,97552.88
2023-03-11T05:38:54.481Z,97563.50
2023-03-11T05:41:29.307Z,97570.81
2023-03-11T05:44:01.016Z,97579.28
2023-03-11T05:46:33.797Z,97575.84
2023-03-11T05:49:06.718Z,97591.34
2023-03-11T05:51:38.541Z,97590.50
2023-03-11T05:54:15.057Z,97601.91
2023-03-11T05:56:50.220Z,97606.97
2023-03-11T05:59:24.007Z,97608.75
2023-03-11T06:02:02.081Z,97605.34
2023-03-11T06:04:34.129Z,97616.09
2023-03-11T06:07:12.207Z,97620.16
2023-03-11T06:09:44.659Z,97631.53
2023-03-11T06:12:21.102Z,97640.34
2023-03-11T06:15:09.351Z,97648.16
2023-03-11T06:17:42.273Z,97666.06
2023-03-11T06:20:14.383Z,97674.72
2023-03-11T06:22:51.272Z,97675.53
2023-03-11T06:25:26.003Z,97677.69
2023-03-11T06:27:59.249Z,97684.69
2023-03-11T06:30:32.512Z,97704.06
2023-03-11T06:33:16.492Z,97712.56
2023-03-11T06:35:59.658Z,97722.84
2023-03-11T06:38:32.320Z,97727.72
2023-03-11T06:41:05.999Z,97732.59
2023-03-11T06:43:39.805Z,97749.38
2023-03-11T06:46:16.150Z,97759.63
2023-03-11T06:48:52.441Z,97766.63
2023-03-11T06:51:25.835Z,97774.44
2023-03-11T06:53:57.635Z,97773.47
2023-03-11T06:56:30.621Z,97780.34
2023-03-11T06:59:07.685Z,97789.63
2023-03-11T07:01:40.130Z,97790.78
2023-03-11T07:04:13.844Z,97796.50
2023-03-11T07:06:46.916Z,97809.72
2023-03-11T07:09:25.357Z,97816.41
2023-03-11T07:11:57.429Z,97829.28
2023-03-11T07:14:34.993Z,97836.63
2023-03-11T07:17:06.737Z,97844.09
2023-03-11T07:19:43.755Z,97848.16
2023-03-11T07:22:15.589Z,97846.03
2023-03-11T07:24:50.526Z,97845.06
2023-03-11T07:27:23.140Z,97862.66
2023-03-11T07:29:54.962Z,97861.00
2023-03-11T07:32:26.674Z,97873.06
2023-03-11T07:34:58.392Z,97882.84
2023-03-11T07:37:30.105Z,97877.31
2023-03-11T07:40:01.987Z,97873.22
2023-03-11T07:42:34.890Z,97883.66
2023-03-11T07:45:08.072Z,97898.84
2023-03-11T07:47:39.859Z,97902.91
2023-03-11T07:50:12.135Z,97901.75
2023-03-11T07:52:44.199Z,97919.84
2023-03-11T07:55:16.095Z,97927.69
2023-03-11T07:57:49.269Z,97931.56
2023-03-11T08:00:21.436Z,97940.03
2023-03-11T08:02:53.593Z,97938.94
2023-03-11T08:05:25.339Z,97941.34
2023-03-11T08:07:57.020Z,97951.44
2023-03-11T08:10:28.835Z,97953.75
2023-03-11T08:13:00.632Z,97953.28
2023-03-11T08:15:32.655Z,97963.66
2023-03-11T08:18:05.275Z,97963.00
2023-03-11T08:20:39.989Z,97963.50
2023-03-11T08:23:11.893Z,97963.34
2023-03-11T08:25:43.663Z,97970.34
2023-03-11T08:28:16.174Z,97977.22
2023-03-11T08:30:47.958Z,97994.78
2023-03-11T08:33:19.937Z,98000.34
2023-03-11T08:35:51.796Z,98003.16
2023-03-11T08:38:23.549Z,98000.88
2023-03-11T08:40:55.284Z,98013.59
2023-03-11T08:43:27.172Z,98023.06
2023-03-11T08:46:04.000Z,98022.41
2023-03-11T08:48:37.872Z,98013.09
2023-03-11T08:51:13.526Z,98038.38
2023-03-11T08:53:45.533Z,98036.44
2023-03-11T08:56:17.476Z,98030.97
2023-03-11T08:58:50.839Z,98037.63
2023-03-11T09:01:23.749Z,98038.47
2023-03-11T09:03:55.703Z,98047.47
2023-03-11T09:06:30.414Z,98051.09
2023-03-11T09:09:02.169Z,98053.56
2023-03-11T09:11:37.452Z,98053.91
2023-03-11T09:14:09.225Z,98071.72
2023-03-11T09:16:41.150Z,98064.56
2023-03-11T09:19:12.889Z,98067.03
2023-03-11T09:21:44.668Z,98078.91
2023-03-11T09:24:16.368Z,98094.22
2023-03-11T09:26:48.132Z,98098.97
2023-03-11T09:29:19.881Z,98110.50
2023-03-11T09:31:51.816Z,98114.78
2023-03-11T09:34:23.653Z,98111.81
2023-03-11T09:36:55.411Z,98122.22
2023-03-11T09:39:27.251Z,98134.06
2023-03-11T09:42:15.216Z,98134.22
2023-03-11T09:44:59.589Z,98145.47
2023-03-11T09:47:39.221Z,98137.28
2023-03-11T09:50:20.484Z,98149.66
2023-03-11T09:53:18.880Z,98159.47
2023-03-11T09:55:56.514Z,98158.06
2023-03-11T09:58:51.566Z,98157.38
2023-03-11T10:01:37.521Z,98155.44
2023-03-11T10:04:18.257Z,98157.97
2023-03-11T10:06:50.294Z,98157.75
2023-03-11T10:09:39.926Z,98176.72
2023-03-11T10:12:20.249Z,98179.13
2023-03-11T10:14:54.722Z,98182.81
2023-03-11T10:17:58.807Z,98179.84
2023-03-11T10:21:00.304Z,98189.09
2023-03-11T10:23:57.956Z,98192.22
2023-03-11T10:26:39.800Z,98195.19
2023-03-11T10:29:25.813Z,98209.91
2023-03-11T10:32:13.320Z,98206.13
2023-03-11T10:34:53.632Z,98198.47
2023-03-11T10:37:48.040Z,98205.16
2023-03-11T10:40:28.200Z,98208.66
2023-03-11T10:43:19.890Z,98212.66
2023-03-11T10:45:53.355Z,98209.53
2023-03-11T10:48:27.268Z,98215.59
2023-03-11T10:51:11.860Z,98215.94
2023-03-11T10:53:53.072Z,98217.59
2023-03-11T10:56:38.662Z,98219.91
2023-03-11T10:59:42.752Z,98227.06
2023-03-11T11:02:31.701Z,98238.84
2023-03-11T11:05:06.318Z,98232.81
2023-03-11T11:07:42.152Z,98237.53
2023-03-11T11:10:22.109Z,98238.34
2023-03-11T11:12:59.475Z,98243.38
2023-03-11T11:15:42.204Z,98245.16
2023-03-11T11:18:22.329Z,98247.31
2023-03-11T11:20:53.940Z,98246.88
2023-03-11T11:23:30.950Z,98245.03
2023-03-11T11:26:06.274Z,98251.56
2023-03-11T11:28:38.027Z,98260.16
2023-03-11T11:31:26.489Z,98256.25
2023-03-11T11:33:58.297Z,98255.81
2023-03-11T11:36:38.877Z,98247.50
2023-03-11T11:39:17.397Z,98247.94
2023-03-11T11:41:52.947Z,98255.56
2023-03-11T11:44:33.832Z,98263.25
2023-03-11T11:47:18.992Z,98261.41
2023-03-11T11:49:58.564Z,98257.69
2023-03-11T11:52:45.243Z,98262.59
2023-03-11T11:55:29.630Z,98270.44
2023-03-11T11:58:01.396Z,98284.97
2023-03-11T12:01:03.441Z,98263.56
2023-03-11T12:04:12.232Z,98278.22
2023-03-11T12:07:14.394Z,98288.97
2023-03-11T12:09:58.084Z,98283.84
2023-03-11T12:12:46.256Z,98298.00
2023-03-11T12:15:27.020Z,98292.75
2023-03-11T12:18:07.073Z,98292.22
2023-03-11T12:20:45.492Z,98298.94
2023-03-11T12:23:20.205Z,98306.09
2023-03-11T12:26:07.730Z,98305.72
2023-03-11T12:29:17.985Z,98307.00
2023-03-11T12:31:50.425Z,98316.94
2023-03-11T12:34:24.913Z,98316.72
2023-03-11T12:37:03.418Z,98329.44
2023-03-11T12:39:35.636Z,98328.25
2023-03-11T12:42:13.067Z,98326.09
2023-03-11T12:44:45.979Z,98323.16
2023-03-11T12:47:20.855Z,98338.69
2023-03-11T12:49:57.220Z,98340.34
2023-03-11T12:52:30.060Z,98327.19
2023-03-11T12:55:01.682Z,98343.41
2023-03-11T12:57:53.019Z,98342.81
2023-03-11T13:00:34.913Z,98343.22
2023-03-11T13:03:15.853Z,98342.97
2023-03-11T13:06:00.421Z,98345.25
2023-03-11T13:08:45.615Z,98346.75
2023-03-11T13:11:49.328Z,98355.56
2023-03-11T13:14:29.726Z,98355.03
2023-03-11T13:17:20.247Z,98353.91
2023-03-11T13:19:53.968Z,98355.91
2023-03-11T13:22:57.556Z,98365.41
2023-03-11T13:25:33.005Z,98364.44
2023-03-11T13:28:47.298Z,98357.06
2023-03-11T13:31:27.885Z,98359.63
2023-03-11T13:34:37.182Z,98359.19
2023-03-11T13:37:16.685Z,98360.16
2023-03-11T13:40:05.783Z,98366.28
2023-03-11T13:42:44.492Z,98368.09
2023-03-11T13:45:37.028Z,98379.75
2023-03-11T13:48:17.425Z,98374.94
2023-03-11T13:51:06.879Z,98373.91
2023-03-11T13:53:43.812Z,98380.97
2023-03-11T13:56:32.840Z,98391.88
2023-03-11T13:59:18.023Z,98393.63
2023-03-11T14:01:58.095Z,98394.03
2023-03-11T14:04:36.315Z,98402.31
2023-03-11T14:07:20.136Z,98414.41
2023-03-11T14:09:52.076Z,98416.44
2023-03-11T14:12:23.775Z,98405.72
2023-03-11T14:15:01.131Z,98410.31
2023-03-11T14:17:32.947Z,98415.53
2023-03-11T14:20:27.906Z,98427.63
2023-03-11T14:22:59.711Z,98434.72
2023-03-11T14:25:31.480Z,98429.41
2023-03-11T14:28:04.899Z,98430.91
2023-03-11T14:30:36.600Z,98435.63
2023-03-11T14:33:22.913Z,98435.44
2023-03-11T14:35:57.709Z,98429.03
2023-03-11T14:38:30.968Z,98445.53
2023-03-11T14:41:07.074Z,98439.94
2023-03-11T14:43:44.272Z,98443.97
2023-03-11T14:46:22.361Z,98450.88
2023-03-11T14:48:56.386Z,98454.06
2023-03-11T14:51:33.864Z,98460.75
2023-03-11T14:54:17.666Z,98462.72
2023-03-11T14:57:10.516Z,98465.34
2023-03-11T14:59:43.981Z,98466.31
2023-03-11T15:02:34.730Z,98469.97
2023-03-11T15:05:17.029Z,98472.97
2023-03-11T15:07:51.660Z,98479.28
2023-03-11T15:10:23.496Z,98481.06
2023-03-11T15:13:15.762Z,98479.78
2023-03-11T15:15:56.583Z,98481.75
2023-03-11T15:18:42.570Z,98484.63
2023-03-11T15:21:17.957Z,98480.91
2023-03-11T15:23:51.366Z,98480.75
2023-03-11T15:26:29.434Z,98489.97
2023-03-11T15:29:11.611Z,98495.56
2023-03-11T15:31:47.944Z,98492.13
2023-03-11T15:34:32.587Z,98497.16
2023-03-11T15:37:20.966Z,98496.44
2023-03-11T15:39:53.301Z,98506.59
2023-03-11T15:42:26.419Z,98510.03
2023-03-11T15:45:03.292Z,98520.78
2023-03-11T15:47:36.211Z,98527.69
2023-03-11T15:50:24.951Z,98538.78
2023-03-11T15:52:59.416Z,98528.53
2023-03-11T15:55:31.185Z,98536.56
2023-03-11T15:58:07.880Z,98537.66
2023-03-11T16:00:42.926Z,98535.34
2023-03-11T16:03:14.915Z,98538.09
2023-03-11T16:05:47.159Z,98537.25
2023-03-11T16:08:18.926Z,98544.53
2023-03-11T16:10:50.697Z,98549.91
2023-03-11T16:13:23.253Z,98551.00
2023-03-11T16:15:55.171Z,98552.41
2023-03-11T16:18:26.896Z,98558.59
2023-03-11T16:20:58.597Z,98571.25
2023-03-11T16:23:50.194Z,98573.75
2023-03-11T16:26:23.151Z,98576.34
2023-03-11T16:28:57.287Z,98583.19
2023-03-11T16:31:31.426Z,98588.56
2023-03-11T16:34:03.168Z,98598.59
2023-03-11T16:36:34.971Z,98602.56
2023-03-11T16:39:06.797Z,98606.56
2023-03-11T16:41:44.464Z,98610.81
2023-03-11T16:44:16.234Z,98607.53
2023-03-11T16:46:47.954Z,98610.25
2023-03-11T16:49:19.675Z,98612.88
2023-03-11T16:51:51.381Z,98615.78
2023-03-11T16:54:23.219Z,98623.59
2023-03-11T16:56:54.954Z,98627.97
2023-03-11T16:59:26.753Z,98632.09
2023-03-11T17:01:59.488Z,98633.59
2023-03-11T17:04:34.090Z,98635.56
2023-03-11T17:07:07.313Z,98639.94
2023-03-11T17:09:39.119Z,98645.41
2023-03-11T17:12:13.429Z,98643.75
2023-03-11T17:14:46.414Z,98649.50
2023-03-11T17:17:19.195Z,98661.59
2023-03-11T17:19:50.962Z,98665.03
2023-03-11T17:22:22.766Z,98669.28
2023-03-11T17:24:54.631Z,98673.56
2023-03-11T17:27:32.094Z,98684.94
2023-03-11T17:30:06.216Z,98693.28
2023-03-11T17:32:38.081Z,98689.88
2023-03-11T17:35:10.160Z,98698.78
2023-03-11T17:37:41.834Z,98701.78
2023-03-11T17:40:13.717Z,98699.72
2023-03-11T17:42:45.488Z,98692.56
2023-03-11T17:45:17.317Z,98704.47
2023-03-11T17:47:49.165Z,98701.03
2023-03-11T17:50:21.841Z,98712.53
2023-03-11T17:52:53.658Z,98713.34
2023-03-11T17:55:26.309Z,98720.22
2023-03-11T17:57:58.400Z,98726.63
2023-03-11T18:00:30.215Z,98723.91
2023-03-11T18:03:01.904Z,98728.59
2023-03-11T18:05:36.865Z,98727.50
2023-03-11T18:08:08.607Z,98733.97
2023-03-11T18:10:40.336Z,98738.91
2023-03-11T18:13:12.002Z,98746.59
2023-03-11T18:15:43.773Z,98751.09
2023-03-11T18:18:15.607Z,98747.00
2023-03-11T18:20:47.356Z,98754.13
2023-03-11T18:23:19.186Z,98757.13
2023-03-11T18:25:52.151Z,98760.81
2023-03-11T18:28:23.914Z,98755.75
2023-03-11T18:30:55.936Z,98765.34
2023-03-11T18:33:30.722Z,98762.84
2023-03-11T18:36:15.995Z,98761.31
2023-03-11T18:38:48.926Z,98755.28
2023-03-11T18:41:21.325Z,98763.91
2023-03-11T18:43:54.922Z,98765.56
2023-03-11T18:46:29.247Z,98764.97
2023-03-11T18:49:03.520Z,98768.28
2023-03-11T18:51:35.313Z,98767.31
2023-03-11T18:54:07.204Z,98762.50
2023-03-11T18:56:38.986Z,98764.03
2023-03-11T18:59:12.171Z,98768.28
2023-03-11T19:01:44.081Z,98770.50
2023-03-11T19:04:15.925Z,98777.09
2023-03-11T19:06:49.899Z,98765.97
2023-03-11T19:09:21.731Z,98775.44
2023-03-11T19:11:53.668Z,98772.97
2023-03-11T19:14:25.589Z,98770.59
2023-03-11T19:16:57.539Z,98780.06
2023-03-11T19:19:31.525Z,98784.22
2023-03-11T19:22:03.291Z,98777.91
2023-03-11T19:24:35.021Z,98776.41
2023-03-11T19:27:06.728Z,98775.44
2023-03-11T19:29:38.522Z,98778.88
2023-03-11T19:32:10.418Z,98783.63
2023-03-11T19:34:42.237Z,98787.06
2023-03-11T19:37:13.988Z,98792.16
2023-03-11T19:39:45.972Z,98795.34
2023-03-11T19:42:17.762Z,98800.56
2023-03-11T19:44:50.188Z,98797.25
2023-03-11T19:47:23.732Z,98806.28
2023-03-11T19:49:55.445Z,98812.69
2023-03-11T19:52:27.241Z,98810.06
2023-03-11T19:54:59.114Z,98815.44
2023-03-11T19:57:30.946Z,98817.22
2023-03-11T20:00:02.861Z,98811.19
2023-03-11T20:02:56.677Z,98813.63
2023-03-11T20:05:29.099Z,98817.44
2023-03-11T20:08:00.846Z,98821.00
2023-03-11T20:10:41.811Z,98819.63
2023-03-11T20:13:15.181Z,98831.81
2023-03-11T20:15:47.185Z,98831.38
2023-03-11T20:18:19.066Z,98826.41
2023-03-11T20:20:50.914Z,98827.06
2023-03-11T20:23:24.828Z,98822.09
2023-03-11T20:25:56.556Z,98830.72
2023-03-11T20:28:28.395Z,98832.50
2023-03-11T20:31:06.405Z,98837.16
2023-03-11T20:33:38.790Z,98836.19
2023-03-11T20:36:14.147Z,98839.47
2023-03-11T20:38:47.677Z,98837.38
2023-03-11T20:41:20.033Z,98846.16
2023-03-11T20:43:53.170Z,98833.16
2023-03-11T20:46:25.255Z,98842.03
2023-03-11T20:48:57.826Z,98847.78
2023-03-11T20:51:30.152Z,98846.97
2023-03-11T20:54:04.666Z,98844.63
2023-03-11T20:56:36.623Z,98844.63
2023-03-11T20:59:09.819Z,98845.69
2023-03-11T21:01:41.697Z,98849.50
2023-03-11T21:04:16.261Z,98855.91
2023-03-11T21:06:52.571Z,98852.59
2023-03-11T21:09:24.759Z,98845.28
2023-03-11T21:11:59.365Z,98852.28
2023-03-11T21:14:31.169Z,98850.88
2023-03-11T21:17:03.145Z,98849.81
2023-03-11T21:19:35.148Z,98856.22
2023-03-11T21:22:06.928Z,98849.03
2023-03-11T21:24:38.752Z,98850.00
2023-03-11T21:27:11.352Z,98850.94
2023-03-11T21:29:43.947Z,98850.00
2023-03-11T21:32:15.780Z,98853.41
2023-03-11T21:34:47.702Z,98853.41
2023-03-11T21:37:21.526Z,98851.63
2023-03-11T21:39:53.760Z,98854.22
2023-03-11T21:42:29.854Z,98851.06
2023-03-11T21:45:01.927Z,98854.59
2023-03-11T21:47:33.681Z,98856.03
2023-03-11T21:50:06.880Z,98855.13
2023-03-11T21:52:38.663Z,98864.59
2023-03-11T21:55:10.771Z,98859.25
2023-03-11T21:57:42.514Z,98856.78
2023-03-11T22:00:14.879Z,98853.34
2023-03-11T22:02:50.025Z,98857.84
2023-03-11T22:05:21.830Z,98856.31
2023-03-11T22:07:55.481Z,98858.09
2023-03-11T22:10:29.347Z,98860.69
2023-03-11T22:13:01.224Z,98872.97
2023-03-11T22:15:33.475Z,98866.84
2023-03-11T22:18:05.353Z,98865.38
2023-03-11T22:20:39.659Z,98866.56
2023-03-11T22:23:11.807Z,98865.38
2023-03-11T22:25:43.831Z,98864.22
2023-03-11T22:28:15.745Z,98861.97
2023-03-11T22:30:47.555Z,98869.31
2023-03-11T22:33:20.400Z,98866.25
2023-03-11T22:35:57.215Z,98873.09
2023-03-11T22:38:30.817Z,98861.88
2023-03-11T22:41:07.675Z,98857.38
2023-03-11T22:43:40.032Z,98864.00
2023-03-11T22:46:11.852Z,98873.00
2023-03-11T22:48:43.572Z,98864.47
2023-03-11T22:51:15.550Z,98873.09
2023-03-11T22:53:47.635Z,98867.09
2023-03-11T22:56:20.088Z,98876.91
2023-03-11T22:58:51.841Z,98863.19
2023-03-11T23:01:23.645Z,98866.63
2023-03-11T23:03:55.491Z,98860.72
2023-03-11T23:06:27.583Z,98870.63
2023-03-11T23:08:59.482Z,98872.53
2023-03-11T23:11:31.459Z,98869.78
2023-03-11T23:14:03.238Z,98882.78
2023-03-11T23:16:35.052Z,98882.09
2023-03-11T23:19:07.227Z,98903.00
2023-03-11T23:21:39.678Z,98904.28
2023-03-11T23:24:11.380Z,98902.63
2023-03-11T23:26:43.124Z,98899.34
2023-03-11T23:29:14.837Z,98899.56
2023-03-11T23:31:46.551Z,98899.56
2023-03-11T23:34:18.271Z,98889.53
2023-03-11T23:36:50.548Z,98889.63
2023-03-11T23:39:22.253Z,98877.00
2023-03-11T23:41:54.248Z,98881.38
2023-03-11T23:44:26.832Z,98882.19
2023-03-11T23:46:58.645Z,98880.44
2023-03-11T23:49:31.844Z,98890.09
2023-03-11T23:52:05.372Z,98891.03
2023-03-11T23:54:37.131Z,98890.34
2023-03-11T23:57:10.283Z,98894.91
2023-03-11T23:59:45.525Z,98898.44
